sensor_id;sensor_type;location;lat;lon;timestamp;pressure;altitude;pressure_sealevel;temperature;humidity
76730;BME280;65653;53.106;18.046;2023-03-04T00:01:14;100569.06;;;1.46;79.27
76730;BME280;65653;53.106;18.046;2023-03-04T00:03:41;100574.16;;;1.50;78.97
76730;BME280;65653;53.106;18.046;2023-03-04T00:06:08;100562.55;;;1.52;78.89
76730;BME280;65653;53.106;18.046;2023-03-04T00:08:35;100541.69;;;1.53;78.61
76730;BME280;65653;53.106;18.046;2023-03-04T00:11:01;100542.68;;;1.54;78.29
76730;BME280;65653;53.106;18.046;2023-03-04T00:13:28;100519.61;;;1.55;77.95
76730;BME280;65653;53.106;18.046;2023-03-04T00:15:54;100514.94;;;1.55;78.10
76730;BME280;65653;53.106;18.046;2023-03-04T00:18:21;100512.84;;;1.52;78.19
76730;BME280;65653;53.106;18.046;2023-03-04T00:20:47;100506.34;;;1.48;78.52
76730;BME280;65653;53.106;18.046;2023-03-04T00:23:15;100485.10;;;1.40;78.84
76730;BME280;65653;53.106;18.046;2023-03-04T00:25:42;100485.61;;;1.33;79.30
76730;BME280;65653;53.106;18.046;2023-03-04T00:28:08;100483.42;;;1.28;79.53
76730;BME280;65653;53.106;18.046;2023-03-04T00:30:35;100472.52;;;1.22;79.64
76730;BME280;65653;53.106;18.046;2023-03-04T00:33:01;100467.53;;;1.20;79.68
76730;BME280;65653;53.106;18.046;2023-03-04T00:35:28;100460.79;;;1.18;79.88
76730;BME280;65653;53.106;18.046;2023-03-04T00:37:54;100441.45;;;1.17;79.77
76730;BME280;65653;53.106;18.046;2023-03-04T00:40:21;100439.85;;;1.14;80.04
76730;BME280;65653;53.106;18.046;2023-03-04T00:42:47;100439.02;;;1.10;80.23
76730;BME280;65653;53.106;18.046;2023-03-04T00:45:14;100438.95;;;1.07;80.36
76730;BME280;65653;53.106;18.046;2023-03-04T00:47:40;100434.51;;;1.08;80.36
76730;BME280;65653;53.106;18.046;2023-03-04T00:50:07;100428.38;;;1.07;80.42
76730;BME280;65653;53.106;18.046;2023-03-04T00:52:34;100427.61;;;1.11;80.17
76730;BME280;65653;53.106;18.046;2023-03-04T00:55:00;100425.48;;;1.18;79.78
76730;BME280;65653;53.106;18.046;2023-03-04T00:57:27;100432.11;;;1.22;79.64
76730;BME280;65653;53.106;18.046;2023-03-04T00:59:53;100432.63;;;1.26;79.39
76730;BME280;65653;53.106;18.046;2023-03-04T01:02:20;100435.42;;;1.31;79.26
76730;BME280;65653;53.106;18.046;2023-03-04T01:04:46;100437.75;;;1.35;79.07
76730;BME280;65653;53.106;18.046;2023-03-04T01:07:13;100434.58;;;1.41;78.89
76730;BME280;65653;53.106;18.046;2023-03-04T01:09:39;100431.86;;;1.47;78.69
76730;BME280;65653;53.106;18.046;2023-03-04T01:12:05;100433.40;;;1.52;78.62
76730;BME280;65653;53.106;18.046;2023-03-04T01:14:32;100430.36;;;1.56;78.39
76730;BME280;65653;53.106;18.046;2023-03-04T01:16:58;100438.45;;;1.61;78.36
76730;BME280;65653;53.106;18.046;2023-03-04T01:19:25;100432.46;;;1.64;78.26
76730;BME280;65653;53.106;18.046;2023-03-04T01:21:52;100432.66;;;1.65;78.26
76730;BME280;65653;53.106;18.046;2023-03-04T01:24:18;100429.79;;;1.69;78.19
76730;BME280;65653;53.106;18.046;2023-03-04T01:26:45;100436.16;;;1.72;78.03
76730;BME280;65653;53.106;18.046;2023-03-04T01:29:11;100430.32;;;1.74;78.10
76730;BME280;65653;53.106;18.046;2023-03-04T01:31:38;100432.77;;;1.77;78.05
76730;BME280;65653;53.106;18.046;2023-03-04T01:34:04;100428.76;;;1.79;78.03
76730;BME280;65653;53.106;18.046;2023-03-04T01:36:31;100425.44;;;1.81;77.96
76730;BME280;65653;53.106;18.046;2023-03-04T01:38:57;100426.86;;;1.83;77.92
76730;BME280;65653;53.106;18.046;2023-03-04T01:41:25;100425.10;;;1.84;78.07
76730;BME280;65653;53.106;18.046;2023-03-04T01:43:55;100426.23;;;1.85;78.03
76730;BME280;65653;53.106;18.046;2023-03-04T01:46:23;100420.06;;;1.87;78.05
76730;BME280;65653;53.106;18.046;2023-03-04T01:48:49;100419.69;;;1.89;77.97
76730;BME280;65653;53.106;18.046;2023-03-04T01:51:17;100415.89;;;1.90;78.00
76730;BME280;65653;53.106;18.046;2023-03-04T01:53:47;100414.39;;;1.92;77.96
76730;BME280;65653;53.106;18.046;2023-03-04T01:56:20;100410.16;;;1.93;77.97
76730;BME280;65653;53.106;18.046;2023-03-04T02:01:40;100411.92;;;1.95;78.20
76730;BME280;65653;53.106;18.046;2023-03-04T02:04:09;100409.02;;;1.97;78.10
76730;BME280;65653;53.106;18.046;2023-03-04T02:06:37;100405.02;;;1.99;78.11
76730;BME280;65653;53.106;18.046;2023-03-04T02:09:05;100407.25;;;2.00;78.12
76730;BME280;65653;53.106;18.046;2023-03-04T02:11:35;100401.95;;;2.00;78.13
76730;BME280;65653;53.106;18.046;2023-03-04T02:14:02;100399.87;;;2.01;78.16
76730;BME280;65653;53.106;18.046;2023-03-04T02:16:30;100394.80;;;2.02;78.22
76730;BME280;65653;53.106;18.046;2023-03-04T02:18:57;100385.53;;;2.04;78.14
76730;BME280;65653;53.106;18.046;2023-03-04T02:21:28;100381.51;;;2.06;78.19
76730;BME280;65653;53.106;18.046;2023-03-04T02:24:11;100382.36;;;2.08;78.12
76730;BME280;65653;53.106;18.046;2023-03-04T02:26:41;100380.80;;;2.11;78.11
76730;BME280;65653;53.106;18.046;2023-03-04T02:29:10;100375.30;;;2.12;78.05
76730;BME280;65653;53.106;18.046;2023-03-04T02:31:42;100377.35;;;2.14;77.93
76730;BME280;65653;53.106;18.046;2023-03-04T02:34:21;100378.48;;;2.16;77.94
76730;BME280;65653;53.106;18.046;2023-03-04T02:36:50;100376.51;;;2.17;77.93
76730;BME280;65653;53.106;18.046;2023-03-04T02:39:34;100368.48;;;2.17;77.87
76730;BME280;65653;53.106;18.046;2023-03-04T02:42:02;100369.48;;;2.18;77.78
76730;BME280;65653;53.106;18.046;2023-03-04T02:44:31;100364.54;;;2.20;77.84
76730;BME280;65653;53.106;18.046;2023-03-04T02:47:01;100359.06;;;2.19;77.96
76730;BME280;65653;53.106;18.046;2023-03-04T02:49:30;100362.55;;;2.18;77.97
76730;BME280;65653;53.106;18.046;2023-03-04T02:52:01;100359.51;;;2.18;77.93
76730;BME280;65653;53.106;18.046;2023-03-04T02:54:29;100356.71;;;2.18;77.99
76730;BME280;65653;53.106;18.046;2023-03-04T02:56:58;100356.47;;;2.19;77.97
76730;BME280;65653;53.106;18.046;2023-03-04T02:59:25;100355.66;;;2.20;77.92
76730;BME280;65653;53.106;18.046;2023-03-04T03:01:52;100361.15;;;2.21;77.99
76730;BME280;65653;53.106;18.046;2023-03-04T03:04:20;100352.44;;;2.21;77.82
76730;BME280;65653;53.106;18.046;2023-03-04T03:06:48;100344.05;;;2.19;77.81
76730;BME280;65653;53.106;18.046;2023-03-04T03:09:15;100350.82;;;2.19;77.96
76730;BME280;65653;53.106;18.046;2023-03-04T03:11:41;100350.34;;;2.20;77.79
76730;BME280;65653;53.106;18.046;2023-03-04T03:14:08;100345.87;;;2.21;77.86
76730;BME280;65653;53.106;18.046;2023-03-04T03:16:34;100343.23;;;2.22;77.79
76730;BME280;65653;53.106;18.046;2023-03-04T03:19:02;100339.00;;;2.20;77.87
76730;BME280;65653;53.106;18.046;2023-03-04T03:21:29;100336.73;;;2.19;77.88
76730;BME280;65653;53.106;18.046;2023-03-04T03:23:55;100342.66;;;2.20;77.89
76730;BME280;65653;53.106;18.046;2023-03-04T03:26:22;100340.58;;;2.21;77.93
76730;BME280;65653;53.106;18.046;2023-03-04T03:28:48;100340.98;;;2.22;77.87
76730;BME280;65653;53.106;18.046;2023-03-04T03:31:14;100342.70;;;2.22;77.88
76730;BME280;65653;53.106;18.046;2023-03-04T03:33:41;100343.41;;;2.20;77.87
76730;BME280;65653;53.106;18.046;2023-03-04T03:36:07;100338.27;;;2.19;77.98
76730;BME280;65653;53.106;18.046;2023-03-04T03:38:34;100334.20;;;2.19;78.09
76730;BME280;65653;53.106;18.046;2023-03-04T03:41:01;100329.43;;;2.20;78.00
76730;BME280;65653;53.106;18.046;2023-03-04T03:43:27;100330.15;;;2.20;77.94
76730;BME280;65653;53.106;18.046;2023-03-04T03:45:53;100328.10;;;2.19;78.01
76730;BME280;65653;53.106;18.046;2023-03-04T03:48:20;100328.98;;;2.17;78.12
76730;BME280;65653;53.106;18.046;2023-03-04T03:50:46;100326.30;;;2.16;78.19
76730;BME280;65653;53.106;18.046;2023-03-04T03:53:13;100328.57;;;2.18;78.12
76730;BME280;65653;53.106;18.046;2023-03-04T03:55:39;100332.39;;;2.19;78.10
76730;BME280;65653;53.106;18.046;2023-03-04T03:58:06;100335.37;;;2.19;78.16
76730;BME280;65653;53.106;18.046;2023-03-04T04:00:32;100338.05;;;2.17;78.30
76730;BME280;65653;53.106;18.046;2023-03-04T04:02:59;100336.89;;;2.16;78.37
76730;BME280;65653;53.106;18.046;2023-03-04T04:05:26;100329.59;;;2.16;78.39
76730;BME280;65653;53.106;18.046;2023-03-04T04:07:52;100335.67;;;2.17;78.35
76730;BME280;65653;53.106;18.046;2023-03-04T04:10:19;100332.90;;;2.18;78.32
76730;BME280;65653;53.106;18.046;2023-03-04T04:12:46;100332.70;;;2.16;78.52
76730;BME280;65653;53.106;18.046;2023-03-04T04:15:13;100338.80;;;2.15;78.53
76730;BME280;65653;53.106;18.046;2023-03-04T04:17:39;100341.48;;;2.16;78.49
76730;BME280;65653;53.106;18.046;2023-03-04T04:20:07;100330.69;;;2.16;78.49
76730;BME280;65653;53.106;18.046;2023-03-04T04:22:34;100338.71;;;2.18;78.62
76730;BME280;65653;53.106;18.046;2023-03-04T04:25:00;100334.00;;;2.18;78.47
76730;BME280;65653;53.106;18.046;2023-03-04T04:27:27;100332.73;;;2.16;78.60
76730;BME280;65653;53.106;18.046;2023-03-04T04:29:53;100330.09;;;2.15;78.71
76730;BME280;65653;53.106;18.046;2023-03-04T04:32:20;100324.77;;;2.15;78.72
76730;BME280;65653;53.106;18.046;2023-03-04T04:34:46;100329.21;;;2.16;78.64
76730;BME280;65653;53.106;18.046;2023-03-04T04:37:13;100325.70;;;2.17;78.66
76730;BME280;65653;53.106;18.046;2023-03-04T04:39:39;100320.12;;;2.16;78.73
76730;BME280;65653;53.106;18.046;2023-03-04T04:42:06;100321.17;;;2.15;78.79
76730;BME280;65653;53.106;18.046;2023-03-04T04:44:32;100314.07;;;2.15;78.92
76730;BME280;65653;53.106;18.046;2023-03-04T04:46:58;100305.27;;;2.15;78.84
76730;BME280;65653;53.106;18.046;2023-03-04T04:49:25;100308.77;;;2.17;78.88
76730;BME280;65653;53.106;18.046;2023-03-04T04:51:51;100298.21;;;2.17;78.80
76730;BME280;65653;53.106;18.046;2023-03-04T04:54:18;100296.15;;;2.15;78.91
76730;BME280;65653;53.106;18.046;2023-03-04T04:56:44;100303.77;;;2.14;78.95
76730;BME280;65653;53.106;18.046;2023-03-04T04:59:11;100300.62;;;2.15;78.97
76730;BME280;65653;53.106;18.046;2023-03-04T05:01:37;100296.95;;;2.17;78.99
76730;BME280;65653;53.106;18.046;2023-03-04T05:04:04;100296.83;;;2.18;78.99
76730;BME280;65653;53.106;18.046;2023-03-04T05:06:30;100293.66;;;2.17;78.97
76730;BME280;65653;53.106;18.046;2023-03-04T05:08:57;100291.95;;;2.15;79.04
76730;BME280;65653;53.106;18.046;2023-03-04T05:11:23;100300.80;;;2.15;79.17
76730;BME280;65653;53.106;18.046;2023-03-04T05:13:50;100292.95;;;2.17;79.23
76730;BME280;65653;53.106;18.046;2023-03-04T05:16:17;100291.99;;;2.17;79.13
76730;BME280;65653;53.106;18.046;2023-03-04T05:18:44;100284.65;;;2.18;79.28
76730;BME280;65653;53.106;18.046;2023-03-04T05:21:10;100279.15;;;2.16;79.38
76730;BME280;65653;53.106;18.046;2023-03-04T05:23:39;100277.00;;;2.16;79.50
76730;BME280;65653;53.106;18.046;2023-03-04T05:26:09;100284.47;;;2.16;79.53
76730;BME280;65653;53.106;18.046;2023-03-04T05:28:36;100278.23;;;2.18;79.56
76730;BME280;65653;53.106;18.046;2023-03-04T05:31:03;100280.20;;;2.20;79.58
76730;BME280;65653;53.106;18.046;2023-03-04T05:33:30;100280.63;;;2.20;79.57
76730;BME280;65653;53.106;18.046;2023-03-04T05:35:57;100283.30;;;2.19;79.72
76730;BME280;65653;53.106;18.046;2023-03-04T05:38:24;100275.75;;;2.19;79.67
76730;BME280;65653;53.106;18.046;2023-03-04T05:40:56;100274.93;;;2.20;79.85
76730;BME280;65653;53.106;18.046;2023-03-04T05:43:25;100270.20;;;2.22;79.84
76730;BME280;65653;53.106;18.046;2023-03-04T05:45:53;100280.89;;;2.22;79.87
76730;BME280;65653;53.106;18.046;2023-03-04T05:48:20;100281.95;;;2.21;79.96
76730;BME280;65653;53.106;18.046;2023-03-04T05:50:53;100287.79;;;2.21;80.12
76730;BME280;65653;53.106;18.046;2023-03-04T05:53:19;100288.00;;;2.22;80.13
76730;BME280;65653;53.106;18.046;2023-03-04T05:55:46;100287.25;;;2.23;80.29
76730;BME280;65653;53.106;18.046;2023-03-04T05:58:14;100285.55;;;2.23;80.29
76730;BME280;65653;53.106;18.046;2023-03-04T06:00:41;100278.98;;;2.21;80.51
76730;BME280;65653;53.106;18.046;2023-03-04T06:03:14;100280.31;;;2.21;80.58
76730;BME280;65653;53.106;18.046;2023-03-04T06:05:40;100279.66;;;2.22;80.64
76730;BME280;65653;53.106;18.046;2023-03-04T06:08:07;100281.15;;;2.23;80.64
76730;BME280;65653;53.106;18.046;2023-03-04T06:10:33;100277.35;;;2.25;80.59
76730;BME280;65653;53.106;18.046;2023-03-04T06:13:00;100276.56;;;2.25;80.67
76730;BME280;65653;53.106;18.046;2023-03-04T06:15:26;100274.36;;;2.26;80.79
76730;BME280;65653;53.106;18.046;2023-03-04T06:17:53;100276.77;;;2.25;80.84
76730;BME280;65653;53.106;18.046;2023-03-04T06:20:19;100276.41;;;2.27;80.92
76730;BME280;65653;53.106;18.046;2023-03-04T06:22:46;100272.02;;;2.28;80.86
76730;BME280;65653;53.106;18.046;2023-03-04T06:25:12;100273.98;;;2.31;80.80
76730;BME280;65653;53.106;18.046;2023-03-04T06:27:39;100275.89;;;2.33;80.72
76730;BME280;65653;53.106;18.046;2023-03-04T06:30:08;100272.83;;;2.36;80.73
76730;BME280;65653;53.106;18.046;2023-03-04T06:32:34;100272.27;;;2.39;80.57
76730;BME280;65653;53.106;18.046;2023-03-04T06:35:01;100269.89;;;2.41;80.58
76730;BME280;65653;53.106;18.046;2023-03-04T06:37:27;100272.29;;;2.43;80.53
76730;BME280;65653;53.106;18.046;2023-03-04T06:39:54;100271.30;;;2.43;80.66
76730;BME280;65653;53.106;18.046;2023-03-04T06:42:21;100274.11;;;2.44;80.59
76730;BME280;65653;53.106;18.046;2023-03-04T06:44:48;100273.70;;;2.48;80.49
76730;BME280;65653;53.106;18.046;2023-03-04T06:47:15;100273.70;;;2.51;80.36
76730;BME280;65653;53.106;18.046;2023-03-04T06:49:41;100271.08;;;2.55;80.34
76730;BME280;65653;53.106;18.046;2023-03-04T06:52:11;100272.86;;;2.56;80.30
76730;BME280;65653;53.106;18.046;2023-03-04T06:54:38;100270.16;;;2.57;80.33
76730;BME280;65653;53.106;18.046;2023-03-04T06:57:06;100274.27;;;2.60;80.32
76730;BME280;65653;53.106;18.046;2023-03-04T06:59:33;100277.61;;;2.62;80.27
76730;BME280;65653;53.106;18.046;2023-03-04T07:01:59;100271.60;;;2.66;80.28
76730;BME280;65653;53.106;18.046;2023-03-04T07:04:26;100278.58;;;2.67;80.33
76730;BME280;65653;53.106;18.046;2023-03-04T07:06:52;100282.68;;;2.68;80.37
76730;BME280;65653;53.106;18.046;2023-03-04T07:09:19;100272.43;;;2.68;80.42
76730;BME280;65653;53.106;18.046;2023-03-04T07:11:45;100273.46;;;2.69;80.51
76730;BME280;65653;53.106;18.046;2023-03-04T07:14:12;100276.77;;;2.70;80.72
76730;BME280;65653;53.106;18.046;2023-03-04T07:16:39;100275.61;;;2.71;80.93
76730;BME280;65653;53.106;18.046;2023-03-04T07:19:05;100278.52;;;2.68;80.89
76730;BME280;65653;53.106;18.046;2023-03-04T07:21:31;100275.00;;;2.65;81.34
76730;BME280;65653;53.106;18.046;2023-03-04T07:23:58;100275.54;;;2.61;81.79
76730;BME280;65653;53.106;18.046;2023-03-04T07:26:24;100273.81;;;2.57;82.10
76730;BME280;65653;53.106;18.046;2023-03-04T07:28:51;100274.44;;;2.55;82.53
76730;BME280;65653;53.106;18.046;2023-03-04T07:31:26;100273.23;;;2.52;82.82
76730;BME280;65653;53.106;18.046;2023-03-04T07:33:57;100272.04;;;2.52;83.15
76730;BME280;65653;53.106;18.046;2023-03-04T07:36:24;100266.84;;;2.51;83.38
76730;BME280;65653;53.106;18.046;2023-03-04T07:38:51;100266.04;;;2.50;83.74
76730;BME280;65653;53.106;18.046;2023-03-04T07:41:25;100261.14;;;2.49;84.01
76730;BME280;65653;53.106;18.046;2023-03-04T07:43:52;100259.95;;;2.51;84.25
76730;BME280;65653;53.106;18.046;2023-03-04T07:46:18;100256.30;;;2.51;84.47
76730;BME280;65653;53.106;18.046;2023-03-04T07:48:45;100251.66;;;2.51;84.55
76730;BME280;65653;53.106;18.046;2023-03-04T07:51:17;100244.40;;;2.56;84.55
76730;BME280;65653;53.106;18.046;2023-03-04T07:53:46;100247.86;;;2.58;84.40
76730;BME280;65653;53.106;18.046;2023-03-04T07:56:19;100248.83;;;2.62;84.44
76730;BME280;65653;53.106;18.046;2023-03-04T07:58:46;100247.33;;;2.66;84.16
76730;BME280;65653;53.106;18.046;2023-03-04T08:01:18;100243.58;;;2.68;84.14
76730;BME280;65653;53.106;18.046;2023-03-04T08:03:45;100242.77;;;2.71;84.09
76730;BME280;65653;53.106;18.046;2023-03-04T08:06:15;100241.48;;;2.71;83.95
76730;BME280;65653;53.106;18.046;2023-03-04T08:08:42;100238.27;;;2.74;83.90
76730;BME280;65653;53.106;18.046;2023-03-04T08:11:15;100240.66;;;2.75;83.90
76730;BME280;65653;53.106;18.046;2023-03-04T08:13:42;100236.36;;;2.78;83.76
76730;BME280;65653;53.106;18.046;2023-03-04T08:16:12;100237.56;;;2.80;83.77
76730;BME280;65653;53.106;18.046;2023-03-04T08:18:42;100232.88;;;2.81;84.11
76730;BME280;65653;53.106;18.046;2023-03-04T08:21:13;100234.92;;;2.81;84.19
76730;BME280;65653;53.106;18.046;2023-03-04T08:23:41;100222.65;;;2.78;84.63
76730;BME280;65653;53.106;18.046;2023-03-04T08:26:10;100226.80;;;2.77;84.93
76730;BME280;65653;53.106;18.046;2023-03-04T08:28:38;100230.41;;;2.75;85.42
76730;BME280;65653;53.106;18.046;2023-03-04T08:31:05;100222.95;;;2.72;85.46
76730;BME280;65653;53.106;18.046;2023-03-04T08:33:33;100224.77;;;2.71;85.85
76730;BME280;65653;53.106;18.046;2023-03-04T08:35:59;100221.48;;;2.71;86.22
76730;BME280;65653;53.106;18.046;2023-03-04T08:38:26;100220.19;;;2.71;86.43
76730;BME280;65653;53.106;18.046;2023-03-04T08:40:56;100226.64;;;2.72;86.53
76730;BME280;65653;53.106;18.046;2023-03-04T08:43:24;100220.53;;;2.73;86.93
76730;BME280;65653;53.106;18.046;2023-03-04T08:45:52;100220.27;;;2.80;87.07
76730;BME280;65653;53.106;18.046;2023-03-04T08:48:20;100216.27;;;2.84;87.07
76730;BME280;65653;53.106;18.046;2023-03-04T08:50:48;100214.92;;;2.91;87.30
76730;BME280;65653;53.106;18.046;2023-03-04T08:53:17;100217.61;;;2.97;87.04
76730;BME280;65653;53.106;18.046;2023-03-04T08:55:44;100210.88;;;3.02;87.03
76730;BME280;65653;53.106;18.046;2023-03-04T08:58:12;100214.18;;;3.07;87.14
76730;BME280;65653;53.106;18.046;2023-03-04T09:00:41;100220.05;;;3.10;87.08
76730;BME280;65653;53.106;18.046;2023-03-04T09:03:11;100216.38;;;3.02;87.28
76730;BME280;65653;53.106;18.046;2023-03-04T09:05:38;100215.59;;;3.01;87.54
76730;BME280;65653;53.106;18.046;2023-03-04T09:08:05;100219.80;;;3.01;87.62
76730;BME280;65653;53.106;18.046;2023-03-04T09:10:31;100225.27;;;2.98;87.57
76730;BME280;65653;53.106;18.046;2023-03-04T09:12:58;100219.55;;;2.95;87.63
76730;BME280;65653;53.106;18.046;2023-03-04T09:15:26;100226.95;;;2.92;88.01
76730;BME280;65653;53.106;18.046;2023-03-04T09:17:53;100226.50;;;2.86;88.13
76730;BME280;65653;53.106;18.046;2023-03-04T09:20:19;100227.35;;;2.82;88.52
76730;BME280;65653;53.106;18.046;2023-03-04T09:22:46;100230.86;;;2.80;88.87
76730;BME280;65653;53.106;18.046;2023-03-04T09:25:13;100230.41;;;2.77;89.23
76730;BME280;65653;53.106;18.046;2023-03-04T09:27:41;100232.33;;;2.76;89.28
76730;BME280;65653;53.106;18.046;2023-03-04T09:30:08;100229.00;;;2.67;89.28
76730;BME280;65653;53.106;18.046;2023-03-04T09:32:35;100236.71;;;2.67;89.83
76730;BME280;65653;53.106;18.046;2023-03-04T09:35:02;100237.33;;;2.64;90.29
76730;BME280;65653;53.106;18.046;2023-03-04T09:37:29;100240.35;;;2.65;90.37
76730;BME280;65653;53.106;18.046;2023-03-04T09:39:55;100249.19;;;2.66;90.57
76730;BME280;65653;53.106;18.046;2023-03-04T09:42:34;100244.47;;;2.57;90.21
76730;BME280;65653;53.106;18.046;2023-03-04T09:45:04;100229.86;;;2.39;89.40
76730;BME280;65653;53.106;18.046;2023-03-04T09:47:34;100226.65;;;2.38;87.47
76730;BME280;65653;53.106;18.046;2023-03-04T09:50:06;100228.01;;;2.40;85.76
76730;BME280;65653;53.106;18.046;2023-03-04T09:52:43;100224.45;;;2.32;84.56
76730;BME280;65653;53.106;18.046;2023-03-04T09:55:27;100220.82;;;2.38;83.95
76730;BME280;65653;53.106;18.046;2023-03-04T09:58:38;100220.80;;;2.52;83.91
76730;BME280;65653;53.106;18.046;2023-03-04T10:00:59;100219.14;;;2.56;82.88
76730;BME280;65653;53.106;18.046;2023-03-04T10:03:42;100222.86;;;2.53;82.25
76730;BME280;65653;53.106;18.046;2023-03-04T10:06:20;100226.73;;;2.66;81.63
76730;BME280;65653;53.106;18.046;2023-03-04T10:09:08;100230.71;;;2.73;81.62
76730;BME280;65653;53.106;18.046;2023-03-04T10:11:42;100229.83;;;2.79;82.44
76730;BME280;65653;53.106;18.046;2023-03-04T10:16:52;100223.64;;;3.02;82.18
76730;BME280;65653;53.106;18.046;2023-03-04T10:21:51;100226.02;;;3.05;81.66
76730;BME280;65653;53.106;18.046;2023-03-04T10:24:20;100227.31;;;3.00;81.37
76730;BME280;65653;53.106;18.046;2023-03-04T10:26:51;100218.79;;;3.06;81.90
76730;BME280;65653;53.106;18.046;2023-03-04T10:29:21;100220.33;;;3.25;81.15
76730;BME280;65653;53.106;18.046;2023-03-04T10:31:49;100216.40;;;3.48;80.03
76730;BME280;65653;53.106;18.046;2023-03-04T10:34:17;100220.52;;;3.67;79.16
76730;BME280;65653;53.106;18.046;2023-03-04T10:44:50;100219.63;;;4.12;78.19
76730;BME280;65653;53.106;18.046;2023-03-04T10:47:17;100221.19;;;4.35;78.09
76730;BME280;65653;53.106;18.046;2023-03-04T10:49:52;100223.13;;;4.31;76.90
76730;BME280;65653;53.106;18.046;2023-03-04T10:54:54;100223.19;;;4.77;77.27
76730;BME280;65653;53.106;18.046;2023-03-04T10:57:39;100221.08;;;5.13;76.13
76730;BME280;65653;53.106;18.046;2023-03-04T11:02:45;100225.29;;;5.38;74.00
76730;BME280;65653;53.106;18.046;2023-03-04T11:05:23;100234.01;;;5.62;72.49
76730;BME280;65653;53.106;18.046;2023-03-04T11:07:55;100226.94;;;5.68;62.39
76730;BME280;65653;53.106;18.046;2023-03-04T11:10:29;100228.84;;;5.56;61.68
76730;BME280;65653;53.106;18.046;2023-03-04T11:15:57;100239.45;;;5.21;61.57
76730;BME280;65653;53.106;18.046;2023-03-04T11:18:41;100240.23;;;5.36;59.74
76730;BME280;65653;53.106;18.046;2023-03-04T11:21:36;100241.79;;;5.56;57.50
76730;BME280;65653;53.106;18.046;2023-03-04T11:24:10;100240.25;;;5.87;55.12
76730;BME280;65653;53.106;18.046;2023-03-04T11:26:45;100232.77;;;6.10;55.12
76730;BME280;65653;53.106;18.046;2023-03-04T11:29:18;100233.86;;;6.24;51.73
76730;BME280;65653;53.106;18.046;2023-03-04T11:37:33;100236.88;;;6.13;54.55
76730;BME280;65653;53.106;18.046;2023-03-04T11:40:35;100237.88;;;6.31;54.67
76730;BME280;65653;53.106;18.046;2023-03-04T11:48:53;100245.02;;;6.34;51.49
76730;BME280;65653;53.106;18.046;2023-03-04T11:51:42;100238.46;;;6.29;50.37
76730;BME280;65653;53.106;18.046;2023-03-04T11:57:31;100239.00;;;6.25;50.31
76730;BME280;65653;53.106;18.046;2023-03-04T12:03:32;100242.69;;;6.73;51.54
76730;BME280;65653;53.106;18.046;2023-03-04T12:11:45;100241.80;;;7.22;49.33
76730;BME280;65653;53.106;18.046;2023-03-04T12:14:39;100239.06;;;7.28;45.94
76730;BME280;65653;53.106;18.046;2023-03-04T12:20:16;100248.27;;;8.89;41.13
76730;BME280;65653;53.106;18.046;2023-03-04T12:25:33;100251.07;;;9.61;38.67
76730;BME280;65653;53.106;18.046;2023-03-04T12:39:31;100256.04;;;13.62;29.72
76730;BME280;65653;53.106;18.046;2023-03-04T12:42:31;100249.19;;;14.45;29.41
76730;BME280;65653;53.106;18.046;2023-03-04T12:45:19;100246.23;;;13.60;31.31
76730;BME280;65653;53.106;18.046;2023-03-04T12:50:50;100244.70;;;15.44;28.37
76730;BME280;65653;53.106;18.046;2023-03-04T12:56:26;100254.42;;;13.89;30.79
76730;BME280;65653;53.106;18.046;2023-03-04T12:58:55;100247.36;;;15.02;27.33
76730;BME280;65653;53.106;18.046;2023-03-04T13:01:23;100246.48;;;14.76;26.38
76730;BME280;65653;53.106;18.046;2023-03-04T13:06:42;100246.65;;;16.08;25.45
76730;BME280;65653;53.106;18.046;2023-03-04T13:09:31;100242.29;;;17.21;24.56
76730;BME280;65653;53.106;18.046;2023-03-04T13:17:42;100248.16;;;18.37;21.07
76730;BME280;65653;53.106;18.046;2023-03-04T13:22:57;100239.52;;;18.78;18.42
76730;BME280;65653;53.106;18.046;2023-03-04T13:25:40;100242.35;;;18.53;18.04
76730;BME280;65653;53.106;18.046;2023-03-04T13:30:41;100241.20;;;19.55;17.69
76730;BME280;65653;53.106;18.046;2023-03-04T13:36:04;100245.48;;;18.57;17.15
76730;BME280;65653;53.106;18.046;2023-03-04T13:38:34;100242.80;;;17.39;17.71
76730;BME280;65653;53.106;18.046;2023-03-04T13:41:15;100246.55;;;17.01;18.86
76730;BME280;65653;53.106;18.046;2023-03-04T13:43:47;100249.64;;;18.05;17.65
76730;BME280;65653;53.106;18.046;2023-03-04T13:54:13;100241.47;;;18.53;17.15
76730;BME280;65653;53.106;18.046;2023-03-04T13:56:48;100239.54;;;17.92;17.31
76730;BME280;65653;53.106;18.046;2023-03-04T13:59:32;100241.55;;;16.53;18.48
76730;BME280;65653;53.106;18.046;2023-03-04T14:02:14;100246.25;;;16.29;19.03
76730;BME280;65653;53.106;18.046;2023-03-04T14:04:44;100248.66;;;14.66;20.74
76730;BME280;65653;53.106;18.046;2023-03-04T14:07:33;100242.77;;;14.90;20.47
76730;BME280;65653;53.106;18.046;2023-03-04T14:12:33;100253.39;;;13.73;21.98
76730;BME280;65653;53.106;18.046;2023-03-04T14:15:25;100248.61;;;12.56;23.34
76730;BME280;65653;53.106;18.046;2023-03-04T14:17:54;100241.32;;;13.72;23.58
76730;BME280;65653;53.106;18.046;2023-03-04T14:23:00;100244.26;;;14.97;21.63
76730;BME280;65653;53.106;18.046;2023-03-04T14:25:32;100240.70;;;14.48;21.52
76730;BME280;65653;53.106;18.046;2023-03-04T14:30:34;100255.55;;;10.94;26.42
76730;BME280;65653;53.106;18.046;2023-03-04T14:33:01;100252.79;;;10.62;26.62
76730;BME280;65653;53.106;18.046;2023-03-04T14:35:30;100255.64;;;9.75;27.81
76730;BME280;65653;53.106;18.046;2023-03-04T14:38:04;100258.88;;;8.53;29.69
76730;BME280;65653;53.106;18.046;2023-03-04T14:40:44;100269.95;;;8.21;30.60
76730;BME280;65653;53.106;18.046;2023-03-04T14:43:18;100258.88;;;8.16;30.66
76730;BME280;65653;53.106;18.046;2023-03-04T14:45:49;100263.22;;;8.28;30.50